sensor_id;sensor_type;location;lat;lon;timestamp;P1;durP1;ratioP1;P2;durP2;ratioP2
76597;SDS011;65486;53.144;18.134;2023-07-08T00:01:36;3.70;;;2.60;;
76597;SDS011;65486;53.144;18.134;2023-07-08T00:04:03;4.00;;;2.80;;
76597;SDS011;65486;53.144;18.134;2023-07-08T00:06:31;5.50;;;2.80;;
76597;SDS011;65486;53.144;18.134;2023-07-08T00:09:00;4.40;;;2.60;;
76597;SDS011;65486;53.144;18.134;2023-07-08T00:11:28;6.50;;;2.60;;
76597;SDS011;65486;53.144;18.134;2023-07-08T00:13:55;5.60;;;2.70;;
76597;SDS011;65486;53.144;18.134;2023-07-08T00:16:23;5.50;;;2.80;;
76597;SDS011;65486;53.144;18.134;2023-07-08T00:18:51;4.50;;;2.50;;
76597;SDS011;65486;53.144;18.134;2023-07-08T00:21:18;5.10;;;2.70;;
76597;SDS011;65486;53.144;18.134;2023-07-08T00:23:47;5.60;;;2.90;;
76597;SDS011;65486;53.144;18.134;2023-07-08T00:26:21;4.30;;;2.80;;
76597;SDS011;65486;53.144;18.134;2023-07-08T00:28:51;5.40;;;2.90;;
76597;SDS011;65486;53.144;18.134;2023-07-08T00:31:21;4.50;;;2.60;;
76597;SDS011;65486;53.144;18.134;2023-07-08T00:33:50;5.00;;;3.00;;
76597;SDS011;65486;53.144;18.134;2023-07-08T00:36:19;3.90;;;2.90;;
76597;SDS011;65486;53.144;18.134;2023-07-08T00:38:47;6.40;;;2.50;;
76597;SDS011;65486;53.144;18.134;2023-07-08T00:41:16;4.60;;;2.60;;
76597;SDS011;65486;53.144;18.134;2023-07-08T00:43:49;4.60;;;2.70;;
76597;SDS011;65486;53.144;18.134;2023-07-08T00:46:20;5.00;;;2.70;;
76597;SDS011;65486;53.144;18.134;2023-07-08T00:48:58;4.60;;;3.10;;
76597;SDS011;65486;53.144;18.134;2023-07-08T00:51:35;4.10;;;2.70;;
76597;SDS011;65486;53.144;18.134;2023-07-08T00:54:14;3.40;;;2.70;;
76597;SDS011;65486;53.144;18.134;2023-07-08T00:56:53;6.50;;;3.20;;
76597;SDS011;65486;53.144;18.134;2023-07-08T00:59:33;5.10;;;2.80;;
76597;SDS011;65486;53.144;18.134;2023-07-08T01:02:05;5.80;;;3.50;;
76597;SDS011;65486;53.144;18.134;2023-07-08T01:04:36;5.00;;;3.40;;
76597;SDS011;65486;53.144;18.134;2023-07-08T01:07:16;6.00;;;3.00;;
76597;SDS011;65486;53.144;18.134;2023-07-08T01:09:48;4.50;;;2.70;;
76597;SDS011;65486;53.144;18.134;2023-07-08T01:12:21;4.80;;;3.20;;
76597;SDS011;65486;53.144;18.134;2023-07-08T01:14:52;4.30;;;3.00;;
76597;SDS011;65486;53.144;18.134;2023-07-08T01:17:22;6.80;;;3.80;;
76597;SDS011;65486;53.144;18.134;2023-07-08T01:19:49;5.50;;;3.10;;
76597;SDS011;65486;53.144;18.134;2023-07-08T01:22:21;4.80;;;2.90;;
76597;SDS011;65486;53.144;18.134;2023-07-08T01:24:52;4.30;;;2.90;;
76597;SDS011;65486;53.144;18.134;2023-07-08T01:27:19;5.90;;;3.10;;
76597;SDS011;65486;53.144;18.134;2023-07-08T01:29:46;4.80;;;3.10;;
76597;SDS011;65486;53.144;18.134;2023-07-08T01:32:13;4.40;;;2.90;;
76597;SDS011;65486;53.144;18.134;2023-07-08T01:34:45;5.60;;;2.70;;
76597;SDS011;65486;53.144;18.134;2023-07-08T01:37:28;4.30;;;2.80;;
76597;SDS011;65486;53.144;18.134;2023-07-08T01:42:46;5.00;;;3.30;;
76597;SDS011;65486;53.144;18.134;2023-07-08T01:45:15;4.20;;;3.20;;
76597;SDS011;65486;53.144;18.134;2023-07-08T01:47:46;4.40;;;3.00;;
76597;SDS011;65486;53.144;18.134;2023-07-08T01:50:19;4.70;;;2.80;;
76597;SDS011;65486;53.144;18.134;2023-07-08T01:52:52;5.90;;;3.60;;
76597;SDS011;65486;53.144;18.134;2023-07-08T01:55:23;5.70;;;3.40;;
76597;SDS011;65486;53.144;18.134;2023-07-08T01:57:51;7.10;;;3.20;;
76597;SDS011;65486;53.144;18.134;2023-07-08T02:00:22;5.70;;;3.50;;
76597;SDS011;65486;53.144;18.134;2023-07-08T02:02:50;4.30;;;3.00;;
76597;SDS011;65486;53.144;18.134;2023-07-08T02:05:18;5.60;;;3.30;;
76597;SDS011;65486;53.144;18.134;2023-07-08T02:07:45;6.00;;;3.60;;
76597;SDS011;65486;53.144;18.134;2023-07-08T02:10:13;7.30;;;3.70;;
76597;SDS011;65486;53.144;18.134;2023-07-08T02:12:40;6.30;;;3.20;;
76597;SDS011;65486;53.144;18.134;2023-07-08T02:15:08;5.60;;;3.40;;
76597;SDS011;65486;53.144;18.134;2023-07-08T02:17:36;6.40;;;3.00;;
76597;SDS011;65486;53.144;18.134;2023-07-08T02:20:04;5.50;;;3.20;;
76597;SDS011;65486;53.144;18.134;2023-07-08T02:22:34;6.80;;;3.40;;
76597;SDS011;65486;53.144;18.134;2023-07-08T02:25:03;5.40;;;2.90;;
76597;SDS011;65486;53.144;18.134;2023-07-08T02:27:32;3.90;;;3.10;;
76597;SDS011;65486;53.144;18.134;2023-07-08T02:29:59;6.20;;;3.70;;
76597;SDS011;65486;53.144;18.134;2023-07-08T02:32:26;7.60;;;3.50;;
76597;SDS011;65486;53.144;18.134;2023-07-08T02:34:54;4.20;;;3.50;;
76597;SDS011;65486;53.144;18.134;2023-07-08T02:37:22;6.20;;;3.80;;
76597;SDS011;65486;53.144;18.134;2023-07-08T02:39:49;5.10;;;3.60;;
76597;SDS011;65486;53.144;18.134;2023-07-08T02:42:15;7.40;;;3.80;;
76597;SDS011;65486;53.144;18.134;2023-07-08T02:44:43;4.90;;;3.30;;
76597;SDS011;65486;53.144;18.134;2023-07-08T02:47:11;5.20;;;3.40;;
76597;SDS011;65486;53.144;18.134;2023-07-08T02:49:38;6.30;;;3.60;;
76597;SDS011;65486;53.144;18.134;2023-07-08T02:52:05;5.40;;;3.30;;
76597;SDS011;65486;53.144;18.134;2023-07-08T02:54:32;6.00;;;3.60;;
76597;SDS011;65486;53.144;18.134;2023-07-08T02:56:59;5.20;;;3.60;;
76597;SDS011;65486;53.144;18.134;2023-07-08T02:59:27;6.70;;;3.70;;
76597;SDS011;65486;53.144;18.134;2023-07-08T03:01:57;5.80;;;4.20;;
76597;SDS011;65486;53.144;18.134;2023-07-08T03:04:26;6.60;;;4.00;;
76597;SDS011;65486;53.144;18.134;2023-07-08T03:06:54;7.80;;;3.80;;
76597;SDS011;65486;53.144;18.134;2023-07-08T03:09:21;5.40;;;3.80;;
76597;SDS011;65486;53.144;18.134;2023-07-08T03:11:49;8.00;;;4.40;;
76597;SDS011;65486;53.144;18.134;2023-07-08T03:14:16;8.50;;;4.30;;
76597;SDS011;65486;53.144;18.134;2023-07-08T03:16:44;6.60;;;4.50;;
76597;SDS011;65486;53.144;18.134;2023-07-08T03:19:12;6.70;;;3.70;;
76597;SDS011;65486;53.144;18.134;2023-07-08T03:21:42;6.10;;;4.00;;
76597;SDS011;65486;53.144;18.134;2023-07-08T03:24:10;7.00;;;4.20;;
76597;SDS011;65486;53.144;18.134;2023-07-08T03:26:40;6.80;;;4.30;;
76597;SDS011;65486;53.144;18.134;2023-07-08T03:29:10;6.80;;;4.20;;
76597;SDS011;65486;53.144;18.134;2023-07-08T03:31:44;7.10;;;4.00;;
76597;SDS011;65486;53.144;18.134;2023-07-08T03:34:15;6.00;;;4.10;;
76597;SDS011;65486;53.144;18.134;2023-07-08T03:36:49;6.90;;;4.30;;
76597;SDS011;65486;53.144;18.134;2023-07-08T03:39:19;8.50;;;3.60;;
76597;SDS011;65486;53.144;18.134;2023-07-08T03:41:49;5.30;;;4.00;;
76597;SDS011;65486;53.144;18.134;2023-07-08T03:44:17;5.90;;;3.80;;
76597;SDS011;65486;53.144;18.134;2023-07-08T03:46:46;6.80;;;3.70;;
76597;SDS011;65486;53.144;18.134;2023-07-08T03:49:17;7.50;;;4.20;;
76597;SDS011;65486;53.144;18.134;2023-07-08T03:51:49;7.70;;;4.70;;
76597;SDS011;65486;53.144;18.134;2023-07-08T03:54:18;6.00;;;3.40;;
76597;SDS011;65486;53.144;18.134;2023-07-08T03:56:47;6.20;;;4.50;;
76597;SDS011;65486;53.144;18.134;2023-07-08T03:59:16;5.90;;;4.60;;
76597;SDS011;65486;53.144;18.134;2023-07-08T04:01:45;7.50;;;4.30;;
76597;SDS011;65486;53.144;18.134;2023-07-08T04:04:14;4.80;;;3.60;;
76597;SDS011;65486;53.144;18.134;2023-07-08T04:06:43;8.30;;;5.30;;
76597;SDS011;65486;53.144;18.134;2023-07-08T04:09:13;8.20;;;6.10;;
76597;SDS011;65486;53.144;18.134;2023-07-08T04:11:54;7.80;;;5.80;;
76597;SDS011;65486;53.144;18.134;2023-07-08T04:14:22;7.10;;;5.30;;
76597;SDS011;65486;53.144;18.134;2023-07-08T04:16:50;8.90;;;5.30;;
76597;SDS011;65486;53.144;18.134;2023-07-08T04:19:25;6.10;;;4.90;;
76597;SDS011;65486;53.144;18.134;2023-07-08T04:21:54;8.40;;;5.20;;
76597;SDS011;65486;53.144;18.134;2023-07-08T04:24:21;9.60;;;5.80;;
76597;SDS011;65486;53.144;18.134;2023-07-08T04:26:50;6.90;;;4.80;;
76597;SDS011;65486;53.144;18.134;2023-07-08T04:29:23;8.70;;;5.10;;
76597;SDS011;65486;53.144;18.134;2023-07-08T04:31:55;6.90;;;4.80;;
76597;SDS011;65486;53.144;18.134;2023-07-08T04:34:24;7.90;;;4.80;;
76597;SDS011;65486;53.144;18.134;2023-07-08T04:36:52;7.70;;;5.00;;
76597;SDS011;65486;53.144;18.134;2023-07-08T04:39:19;8.30;;;5.30;;
76597;SDS011;65486;53.144;18.134;2023-07-08T04:41:48;10.60;;;5.20;;
76597;SDS011;65486;53.144;18.134;2023-07-08T04:44:17;8.40;;;5.20;;
76597;SDS011;65486;53.144;18.134;2023-07-08T04:46:47;9.60;;;5.40;;
76597;SDS011;65486;53.144;18.134;2023-07-08T04:49:17;7.40;;;5.40;;
76597;SDS011;65486;53.144;18.134;2023-07-08T04:51:51;8.70;;;6.00;;
76597;SDS011;65486;53.144;18.134;2023-07-08T04:54:38;7.30;;;4.70;;
76597;SDS011;65486;53.144;18.134;2023-07-08T04:57:08;9.50;;;5.00;;
76597;SDS011;65486;53.144;18.134;2023-07-08T04:59:38;7.10;;;4.70;;
76597;SDS011;65486;53.144;18.134;2023-07-08T05:02:05;7.40;;;5.00;;
76597;SDS011;65486;53.144;18.134;2023-07-08T05:04:33;8.50;;;5.30;;
76597;SDS011;65486;53.144;18.134;2023-07-08T05:07:00;7.30;;;6.00;;
76597;SDS011;65486;53.144;18.134;2023-07-08T05:09:27;8.20;;;5.50;;
76597;SDS011;65486;53.144;18.134;2023-07-08T05:11:57;8.30;;;5.60;;
76597;SDS011;65486;53.144;18.134;2023-07-08T05:14:24;9.20;;;6.20;;
76597;SDS011;65486;53.144;18.134;2023-07-08T05:16:51;9.30;;;5.70;;
76597;SDS011;65486;53.144;18.134;2023-07-08T05:19:18;9.80;;;6.20;;
76597;SDS011;65486;53.144;18.134;2023-07-08T05:21:48;10.20;;;6.40;;
76597;SDS011;65486;53.144;18.134;2023-07-08T05:24:15;7.80;;;5.00;;
76597;SDS011;65486;53.144;18.134;2023-07-08T05:26:45;8.40;;;5.20;;
76597;SDS011;65486;53.144;18.134;2023-07-08T05:29:12;7.20;;;5.80;;
76597;SDS011;65486;53.144;18.134;2023-07-08T05:31:39;9.80;;;5.20;;
76597;SDS011;65486;53.144;18.134;2023-07-08T05:34:06;10.30;;;4.80;;
76597;SDS011;65486;53.144;18.134;2023-07-08T05:36:34;8.50;;;5.40;;
76597;SDS011;65486;53.144;18.134;2023-07-08T05:39:02;8.10;;;6.10;;
76597;SDS011;65486;53.144;18.134;2023-07-08T05:41:37;8.10;;;6.20;;
76597;SDS011;65486;53.144;18.134;2023-07-08T05:44:04;6.40;;;5.10;;
76597;SDS011;65486;53.144;18.134;2023-07-08T05:46:31;7.90;;;5.20;;
76597;SDS011;65486;53.144;18.134;2023-07-08T05:48:59;6.30;;;5.10;;
76597;SDS011;65486;53.144;18.134;2023-07-08T05:51:27;7.40;;;4.70;;
76597;SDS011;65486;53.144;18.134;2023-07-08T05:53:54;6.90;;;5.00;;
76597;SDS011;65486;53.144;18.134;2023-07-08T05:56:21;8.00;;;5.50;;
76597;SDS011;65486;53.144;18.134;2023-07-08T05:58:48;8.30;;;4.10;;
76597;SDS011;65486;53.144;18.134;2023-07-08T06:01:15;9.40;;;5.20;;
76597;SDS011;65486;53.144;18.134;2023-07-08T06:03:42;8.40;;;5.10;;
76597;SDS011;65486;53.144;18.134;2023-07-08T06:06:11;6.20;;;3.70;;
76597;SDS011;65486;53.144;18.134;2023-07-08T06:08:39;6.60;;;4.30;;
76597;SDS011;65486;53.144;18.134;2023-07-08T06:11:06;7.60;;;4.90;;
76597;SDS011;65486;53.144;18.134;2023-07-08T06:13:33;5.60;;;3.50;;
76597;SDS011;65486;53.144;18.134;2023-07-08T06:16:02;8.40;;;4.10;;
76597;SDS011;65486;53.144;18.134;2023-07-08T06:18:31;5.60;;;3.70;;
76597;SDS011;65486;53.144;18.134;2023-07-08T06:20:58;6.20;;;3.80;;
76597;SDS011;65486;53.144;18.134;2023-07-08T06:23:25;5.00;;;3.30;;
76597;SDS011;65486;53.144;18.134;2023-07-08T06:25:57;9.40;;;3.80;;
76597;SDS011;65486;53.144;18.134;2023-07-08T06:28:24;8.00;;;3.80;;
76597;SDS011;65486;53.144;18.134;2023-07-08T06:30:51;6.30;;;4.10;;
76597;SDS011;65486;53.144;18.134;2023-07-08T06:33:18;4.50;;;3.40;;
76597;SDS011;65486;53.144;18.134;2023-07-08T06:35:47;6.50;;;4.00;;
76597;SDS011;65486;53.144;18.134;2023-07-08T06:38:14;5.40;;;3.30;;
76597;SDS011;65486;53.144;18.134;2023-07-08T06:40:46;9.70;;;3.20;;
76597;SDS011;65486;53.144;18.134;2023-07-08T06:43:13;6.20;;;3.30;;
76597;SDS011;65486;53.144;18.134;2023-07-08T06:46:02;6.00;;;3.30;;
76597;SDS011;65486;53.144;18.134;2023-07-08T06:48:30;5.90;;;3.00;;
76597;SDS011;65486;53.144;18.134;2023-07-08T06:50:57;4.00;;;3.10;;
76597;SDS011;65486;53.144;18.134;2023-07-08T06:53:25;4.30;;;3.10;;
76597;SDS011;65486;53.144;18.134;2023-07-08T06:55:52;3.60;;;3.20;;
76597;SDS011;65486;53.144;18.134;2023-07-08T06:58:26;3.70;;;2.70;;
76597;SDS011;65486;53.144;18.134;2023-07-08T07:00:53;5.20;;;2.60;;
76597;SDS011;65486;53.144;18.134;2023-07-08T07:03:21;4.10;;;2.50;;
76597;SDS011;65486;53.144;18.134;2023-07-08T07:05:48;4.50;;;2.90;;
76597;SDS011;65486;53.144;18.134;2023-07-08T07:08:15;4.20;;;2.40;;
76597;SDS011;65486;53.144;18.134;2023-07-08T07:10:42;3.70;;;2.50;;
76597;SDS011;65486;53.144;18.134;2023-07-08T07:13:09;3.20;;;2.10;;
76597;SDS011;65486;53.144;18.134;2023-07-08T07:15:37;2.80;;;1.90;;
76597;SDS011;65486;53.144;18.134;2023-07-08T07:18:05;4.30;;;2.60;;
76597;SDS011;65486;53.144;18.134;2023-07-08T07:20:33;6.30;;;3.10;;
76597;SDS011;65486;53.144;18.134;2023-07-08T07:23:00;4.00;;;2.70;;
76597;SDS011;65486;53.144;18.134;2023-07-08T07:25:29;5.20;;;2.50;;
76597;SDS011;65486;53.144;18.134;2023-07-08T07:27:56;2.70;;;1.80;;
76597;SDS011;65486;53.144;18.134;2023-07-08T07:30:29;2.90;;;2.50;;
76597;SDS011;65486;53.144;18.134;2023-07-08T07:33:00;5.70;;;2.50;;
76597;SDS011;65486;53.144;18.134;2023-07-08T07:35:27;4.40;;;2.40;;
76597;SDS011;65486;53.144;18.134;2023-07-08T07:37:55;3.00;;;2.00;;
76597;SDS011;65486;53.144;18.134;2023-07-08T07:40:22;4.00;;;2.30;;
76597;SDS011;65486;53.144;18.134;2023-07-08T07:42:51;5.10;;;2.20;;
76597;SDS011;65486;53.144;18.134;2023-07-08T07:45:18;6.30;;;2.60;;
76597;SDS011;65486;53.144;18.134;2023-07-08T07:47:49;2.80;;;1.80;;
76597;SDS011;65486;53.144;18.134;2023-07-08T07:50:17;2.70;;;2.00;;
76597;SDS011;65486;53.144;18.134;2023-07-08T07:52:44;3.00;;;1.90;;
76597;SDS011;65486;53.144;18.134;2023-07-08T07:55:11;5.50;;;2.10;;
76597;SDS011;65486;53.144;18.134;2023-07-08T07:57:43;4.50;;;1.90;;
76597;SDS011;65486;53.144;18.134;2023-07-08T08:00:14;3.40;;;2.20;;
76597;SDS011;65486;53.144;18.134;2023-07-08T08:02:46;5.20;;;1.80;;
76597;SDS011;65486;53.144;18.134;2023-07-08T08:05:15;3.80;;;2.10;;
76597;SDS011;65486;53.144;18.134;2023-07-08T08:07:50;4.40;;;2.60;;
76597;SDS011;65486;53.144;18.134;2023-07-08T08:10:26;3.00;;;2.20;;
76597;SDS011;65486;53.144;18.134;2023-07-08T08:12:53;4.20;;;2.30;;
76597;SDS011;65486;53.144;18.134;2023-07-08T08:15:24;3.30;;;2.10;;
76597;SDS011;65486;53.144;18.134;2023-07-08T08:17:51;3.70;;;2.10;;
76597;SDS011;65486;53.144;18.134;2023-07-08T08:20:27;3.50;;;2.60;;
76597;SDS011;65486;53.144;18.134;2023-07-08T08:22:58;3.90;;;2.50;;
76597;SDS011;65486;53.144;18.134;2023-07-08T08:25:25;4.50;;;2.40;;
76597;SDS011;65486;53.144;18.134;2023-07-08T08:27:55;3.50;;;1.60;;
76597;SDS011;65486;53.144;18.134;2023-07-08T08:30:25;4.20;;;2.40;;
76597;SDS011;65486;53.144;18.134;2023-07-08T08:32:51;3.00;;;2.30;;
76597;SDS011;65486;53.144;18.134;2023-07-08T08:35:19;4.80;;;2.50;;
76597;SDS011;65486;53.144;18.134;2023-07-08T08:37:46;3.10;;;2.10;;
76597;SDS011;65486;53.144;18.134;2023-07-08T08:40:17;3.40;;;2.10;;
76597;SDS011;65486;53.144;18.134;2023-07-08T08:42:50;4.60;;;2.20;;
76597;SDS011;65486;53.144;18.134;2023-07-08T08:45:20;4.60;;;2.90;;
76597;SDS011;65486;53.144;18.134;2023-07-08T08:47:54;3.50;;;2.30;;
76597;SDS011;65486;53.144;18.134;2023-07-08T08:50:32;5.60;;;2.10;;
76597;SDS011;65486;53.144;18.134;2023-07-08T08:53:14;5.70;;;2.70;;
76597;SDS011;65486;53.144;18.134;2023-07-08T08:55:45;5.10;;;2.50;;
76597;SDS011;65486;53.144;18.134;2023-07-08T08:58:35;5.20;;;2.00;;
76597;SDS011;65486;53.144;18.134;2023-07-08T09:01:08;2.90;;;2.00;;
76597;SDS011;65486;53.144;18.134;2023-07-08T09:03:50;2.40;;;1.70;;
76597;SDS011;65486;53.144;18.134;2023-07-08T09:06:22;3.10;;;1.70;;
76597;SDS011;65486;53.144;18.134;2023-07-08T09:08:51;2.90;;;1.80;;
76597;SDS011;65486;53.144;18.134;2023-07-08T09:11:27;2.10;;;1.80;;
76597;SDS011;65486;53.144;18.134;2023-07-08T09:13:58;3.70;;;1.70;;
76597;SDS011;65486;53.144;18.134;2023-07-08T09:16:34;4.20;;;2.40;;
76597;SDS011;65486;53.144;18.134;2023-07-08T09:19:22;2.80;;;1.60;;
76597;SDS011;65486;53.144;18.134;2023-07-08T09:25:10;3.00;;;1.90;;
76597;SDS011;65486;53.144;18.134;2023-07-08T09:27:48;4.10;;;1.90;;
76597;SDS011;65486;53.144;18.134;2023-07-08T09:30:17;2.70;;;1.50;;
76597;SDS011;65486;53.144;18.134;2023-07-08T09:32:50;5.50;;;1.90;;
76597;SDS011;65486;53.144;18.134;2023-07-08T09:35:27;6.50;;;2.00;;
76597;SDS011;65486;53.144;18.134;2023-07-08T09:38:13;6.00;;;1.90;;
76597;SDS011;65486;53.144;18.134;2023-07-08T09:40:52;3.80;;;1.60;;
76597;SDS011;65486;53.144;18.134;2023-07-08T09:43:27;2.10;;;1.40;;
76597;SDS011;65486;53.144;18.134;2023-07-08T09:46:16;3.10;;;2.10;;
76597;SDS011;65486;53.144;18.134;2023-07-08T09:48:43;3.00;;;1.90;;
76597;SDS011;65486;53.144;18.134;2023-07-08T09:51:10;4.10;;;1.90;;
76597;SDS011;65486;53.144;18.134;2023-07-08T09:53:37;3.50;;;3.00;;
76597;SDS011;65486;53.144;18.134;2023-07-08T09:56:04;3.40;;;1.70;;
76597;SDS011;65486;53.144;18.134;2023-07-08T09:58:39;2.20;;;1.70;;
76597;SDS011;65486;53.144;18.134;2023-07-08T10:01:28;2.80;;;1.50;;
76597;SDS011;65486;53.144;18.134;2023-07-08T10:03:59;2.60;;;2.10;;
76597;SDS011;65486;53.144;18.134;2023-07-08T10:06:31;4.50;;;1.90;;
76597;SDS011;65486;53.144;18.134;2023-07-08T10:09:00;3.20;;;2.10;;
76597;SDS011;65486;53.144;18.134;2023-07-08T10:11:37;3.10;;;1.60;;
76597;SDS011;65486;53.144;18.134;2023-07-08T10:14:26;4.20;;;2.10;;
76597;SDS011;65486;53.144;18.134;2023-07-08T10:16:59;2.80;;;2.10;;
76597;SDS011;65486;53.144;18.134;2023-07-08T10:19:27;2.50;;;1.40;;
76597;SDS011;65486;53.144;18.134;2023-07-08T10:30:20;2.90;;;1.80;;
76597;SDS011;65486;53.144;18.134;2023-07-08T10:38:05;2.90;;;1.50;;
76597;SDS011;65486;53.144;18.134;2023-07-08T10:52:13;3.20;;;2.20;;
76597;SDS011;65486;53.144;18.134;2023-07-08T11:00:24;5.60;;;2.30;;
76597;SDS011;65486;53.144;18.134;2023-07-08T11:03:27;2.30;;;1.40;;
76597;SDS011;65486;53.144;18.134;2023-07-08T11:06:13;3.30;;;1.70;;
76597;SDS011;65486;53.144;18.134;2023-07-08T11:09:37;3.80;;;1.60;;
76597;SDS011;65486;53.144;18.134;2023-07-08T11:12:32;3.30;;;1.50;;
76597;SDS011;65486;53.144;18.134;2023-07-08T11:15:11;3.00;;;1.90;;
76597;SDS011;65486;53.144;18.134;2023-07-08T11:17:49;4.50;;;1.80;;
76597;SDS011;65486;53.144;18.134;2023-07-08T11:20:45;4.40;;;1.90;;
76597;SDS011;65486;53.144;18.134;2023-07-08T11:26:33;3.00;;;1.80;;
76597;SDS011;65486;53.144;18.134;2023-07-08T11:29:05;3.40;;;1.60;;
76597;SDS011;65486;53.144;18.134;2023-07-08T11:31:48;2.90;;;1.70;;
76597;SDS011;65486;53.144;18.134;2023-07-08T11:34:19;3.60;;;1.90;;
76597;SDS011;65486;53.144;18.134;2023-07-08T11:36:48;3.60;;;2.10;;
76597;SDS011;65486;53.144;18.134;2023-07-08T11:39:34;3.60;;;2.10;;
76597;SDS011;65486;53.144;18.134;2023-07-08T11:44:48;3.40;;;2.00;;
76597;SDS011;65486;53.144;18.134;2023-07-08T11:47:22;4.70;;;1.70;;
76597;SDS011;65486;53.144;18.134;2023-07-08T11:49:53;4.90;;;1.60;;
76597;SDS011;65486;53.144;18.134;2023-07-08T11:52:23;3.20;;;2.00;;
76597;SDS011;65486;53.144;18.134;2023-07-08T11:55:03;4.40;;;2.10;;
76597;SDS011;65486;53.144;18.134;2023-07-08T11:57:42;4.10;;;2.10;;
76597;SDS011;65486;53.144;18.134;2023-07-08T12:00:21;5.00;;;2.00;;
76597;SDS011;65486;53.144;18.134;2023-07-08T12:02:53;3.70;;;2.10;;
76597;SDS011;65486;53.144;18.134;2023-07-08T12:05:33;3.40;;;2.30;;
76597;SDS011;65486;53.144;18.134;2023-07-08T12:08:12;2.60;;;2.00;;
76597;SDS011;65486;53.144;18.134;2023-07-08T12:10:51;2.70;;;1.80;;
76597;SDS011;65486;53.144;18.134;2023-07-08T12:13:23;2.50;;;1.70;;
76597;SDS011;65486;53.144;18.134;2023-07-08T12:15:52;2.80;;;1.80;;
76597;SDS011;65486;53.144;18.134;2023-07-08T12:18:24;3.00;;;1.90;;
76597;SDS011;65486;53.144;18.134;2023-07-08T12:20:57;3.70;;;1.90;;
76597;SDS011;65486;53.144;18.134;2023-07-08T12:23:27;3.10;;;2.20;;
76597;SDS011;65486;53.144;18.134;2023-07-08T12:25:57;3.30;;;1.90;;
76597;SDS011;65486;53.144;18.134;2023-07-08T12:28:25;4.20;;;2.20;;
76597;SDS011;65486;53.144;18.134;2023-07-08T12:30:54;4.40;;;2.30;;
76597;SDS011;65486;53.144;18.134;2023-07-08T12:35:53;4.10;;;1.90;;
76597;SDS011;65486;53.144;18.134;2023-07-08T12:38:32;4.40;;;2.30;;
76597;SDS011;65486;53.144;18.134;2023-07-08T12:41:10;2.60;;;1.90;;
76597;SDS011;65486;53.144;18.134;2023-07-08T12:43:40;4.30;;;2.10;;
76597;SDS011;65486;53.144;18.134;2023-07-08T12:46:10;3.70;;;2.30;;
76597;SDS011;65486;53.144;18.134;2023-07-08T12:48:40;3.10;;;1.90;;
76597;SDS011;65486;53.144;18.134;2023-07-08T12:51:15;5.70;;;2.00;;
76597;SDS011;65486;53.144;18.134;2023-07-08T12:53:54;3.10;;;2.30;;
76597;SDS011;65486;53.144;18.134;2023-07-08T12:56:50;3.40;;;2.20;;
76597;SDS011;65486;53.144;18.134;2023-07-08T12:59:25;6.70;;;2.10;;
76597;SDS011;65486;53.144;18.134;2023-07-08T13:01:53;4.30;;;2.10;;
76597;SDS011;65486;53.144;18.134;2023-07-08T13:04:26;4.90;;;2.40;;
76597;SDS011;65486;53.144;18.134;2023-07-08T13:06:55;3.20;;;2.00;;
76597;SDS011;65486;53.144;18.134;2023-07-08T13:09:40;2.80;;;1.70;;
76597;SDS011;65486;53.144;18.134;2023-07-08T13:12:17;3.30;;;2.20;;
76597;SDS011;65486;53.144;18.134;2023-07-08T13:14:53;3.50;;;2.50;;
76597;SDS011;65486;53.144;18.134;2023-07-08T13:17:33;6.70;;;2.20;;
76597;SDS011;65486;53.144;18.134;2023-07-08T13:20:03;4.20;;;2.30;;
76597;SDS011;65486;53.144;18.134;2023-07-08T13:22:32;4.80;;;2.10;;
76597;SDS011;65486;53.144;18.134;2023-07-08T13:25:10;4.00;;;2.00;;
76597;SDS011;65486;53.144;18.134;2023-07-08T13:27:53;6.40;;;1.80;;
76597;SDS011;65486;53.144;18.134;2023-07-08T13:30:26;3.70;;;2.30;;
76597;SDS011;65486;53.144;18.134;2023-07-08T13:32:59;4.80;;;2.20;;
76597;SDS011;65486;53.144;18.134;2023-07-08T13:35:36;3.60;;;2.30;;
76597;SDS011;65486;53.144;18.134;2023-07-08T13:38:12;3.90;;;1.50;;
76597;SDS011;65486;53.144;18.134;2023-07-08T13:40:46;3.90;;;2.60;;
76597;SDS011;65486;53.144;18.134;2023-07-08T13:43:15;6.30;;;2.50;;
76597;SDS011;65486;53.144;18.134;2023-07-08T13:45:43;5.20;;;2.90;;
76597;SDS011;65486;53.144;18.134;2023-07-08T13:48:18;4.70;;;2.50;;
76597;SDS011;65486;53.144;18.134;2023-07-08T13:50:58;4.10;;;2.60;;
76597;SDS011;65486;53.144;18.134;2023-07-08T13:53:38;3.60;;;2.50;;
76597;SDS011;65486;53.144;18.134;2023-07-08T13:56:15;4.90;;;3.10;;
76597;SDS011;65486;53.144;18.134;2023-07-08T13:58:43;10.20;;;3.40;;
76597;SDS011;65486;53.144;18.134;2023-07-08T14:01:24;4.50;;;2.80;;
76597;SDS011;65486;53.144;18.134;2023-07-08T14:03:58;3.70;;;2.50;;
76597;SDS011;65486;53.144;18.134;2023-07-08T14:06:30;4.40;;;2.60;;
76597;SDS011;65486;53.144;18.134;2023-07-08T14:09:06;5.50;;;2.40;;
76597;SDS011;65486;53.144;18.134;2023-07-08T14:11:46;4.60;;;2.50;;
76597;SDS011;65486;53.144;18.134;2023-07-08T14:14:15;6.20;;;2.60;;
76597;SDS011;65486;53.144;18.134;2023-07-08T14:16:44;3.10;;;2.20;;
76597;SDS011;65486;53.144;18.134;2023-07-08T14:19:21;5.20;;;2.70;;
76597;SDS011;65486;53.144;18.134;2023-07-08T14:21:53;3.50;;;2.60;;
76597;SDS011;65486;53.144;18.134;2023-07-08T14:24:24;3.90;;;2.60;;
76597;SDS011;65486;53.144;18.134;2023-07-08T14:26:51;3.60;;;3.60;;
76597;SDS011;65486;53.144;18.134;2023-07-08T14:29:20;5.60;;;2.80;;
76597;SDS011;65486;53.144;18.134;2023-07-08T14:31:48;4.20;;;3.10;;
76597;SDS011;65486;53.144;18.134;2023-07-08T14:34:23;3.70;;;2.70;;
76597;SDS011;65486;53.144;18.134;2023-07-08T14:36:52;4.80;;;2.70;;
76597;SDS011;65486;53.144;18.134;2023-07-08T14:39:19;5.10;;;2.60;;
76597;SDS011;65486;53.144;18.134;2023-07-08T14:41:49;4.20;;;2.80;;
76597;SDS011;65486;53.144;18.134;2023-07-08T14:46:52;5.70;;;2.60;;
76597;SDS011;65486;53.144;18.134;2023-07-08T14:49:20;4.50;;;2.90;;
76597;SDS011;65486;53.144;18.134;2023-07-08T14:51:49;5.50;;;3.40;;
76597;SDS011;65486;53.144;18.134;2023-07-08T14:54:17;5.50;;;2.70;;
76597;SDS011;65486;53.144;18.134;2023-07-08T14:56:45;4.20;;;3.10;;
76597;SDS011;65486;53.144;18.134;2023-07-08T14:59:14;3.90;;;2.90;;
76597;SDS011;65486;53.144;18.134;2023-07-08T15:01:46;4.90;;;3.20;;
76597;SDS011;65486;53.144;18.134;2023-07-08T15:04:14;4.30;;;2.60;;
76597;SDS011;65486;53.144;18.134;2023-07-08T15:06:44;6.20;;;3.00;;
76597;SDS011;65486;53.144;18.134;2023-07-08T15:09:12;3.80;;;2.80;;
76597;SDS011;65486;53.144;18.134;2023-07-08T15:11:41;4.90;;;3.10;;
76597;SDS011;65486;53.144;18.134;2023-07-08T15:14:13;4.30;;;2.80;;
76597;SDS011;65486;53.144;18.134;2023-07-08T15:16:45;4.20;;;2.80;;
76597;SDS011;65486;53.144;18.134;2023-07-08T15:19:13;4.10;;;3.20;;
76597;SDS011;65486;53.144;18.134;2023-07-08T15:21:41;4.90;;;2.50;;
76597;SDS011;65486;53.144;18.134;2023-07-08T15:24:10;6.20;;;2.30;;
76597;SDS011;65486;53.144;18.134;2023-07-08T15:26:40;4.20;;;2.90;;
76597;SDS011;65486;53.144;18.134;2023-07-08T15:29:17;7.00;;;2.60;;
76597;SDS011;65486;53.144;18.134;2023-07-08T15:31:47;4.70;;;2.90;;
76597;SDS011;65486;53.144;18.134;2023-07-08T15:34:15;2.90;;;2.10;;
76597;SDS011;65486;53.144;18.134;2023-07-08T15:36:44;4.00;;;2.20;;
76597;SDS011;65486;53.144;18.134;2023-07-08T15:39:11;4.30;;;2.50;;
76597;SDS011;65486;53.144;18.134;2023-07-08T15:41:43;7.50;;;3.30;;
76597;SDS011;65486;53.144;18.134;2023-07-08T15:44:11;6.30;;;3.10;;
76597;SDS011;65486;53.144;18.134;2023-07-08T15:46:40;4.60;;;2.80;;